Time;durP1;ratioP1;P1;durP2;ratioP2;P2;SDS_P1;SDS_P2;PMS_P1;PMS_P2;Temp;Humidity;BMP_temperature;BMP_pressure;BME280_temperature;BME280_humidity;BME280_pressure;Samples;Min_cycle;Max_cycle;Signal;HPM_P1;HPM_P2
2020/12/25 00:03:48;;;;;;;0.40;0.40;;;4.50;99.90;;;;;;8293640;28;20038;-68
2020/12/25 00:07:49;;;;;;;0.40;0.38;;;4.10;99.90;;;;;;8293788;28;20066;-68
2020/12/25 00:11:49;;;;;;;0.10;0.10;;;3.90;99.90;;;;;;8293519;28;20041;-68
2020/12/25 00:15:50;;;;;;;0.10;0.10;;;3.50;99.90;;;;;;8292535;28;20038;-68
2020/12/25 00:19:51;;;;;;;0.10;0.10;;;3.30;99.90;;;;;;8313563;28;20383;-67
2020/12/25 00:23:51;;;;;;;0.10;0.10;;;3.10;99.90;;;;;;8326147;28;20029;-68
2020/12/25 00:27:52;;;;;;;0.13;0.13;;;2.90;99.90;;;;;;8326588;28;20393;-68
2020/12/25 00:31:52;;;;;;;0.10;0.10;;;2.90;99.90;;;;;;8332237;28;20029;-68
2020/12/25 00:35:53;;;;;;;0.22;0.20;;;2.80;99.90;;;;;;8347650;28;20061;-68
2020/12/25 00:39:53;;;;;;;0.13;0.10;;;2.80;99.90;;;;;;8346988;28;20033;-68
2020/12/25 00:43:54;;;;;;;0.10;0.10;;;2.80;99.90;;;;;;8331714;28;20076;-68
2020/12/25 00:47:55;;;;;;;0.20;0.20;;;2.90;99.90;;;;;;8346919;28;20480;-68
2020/12/25 00:51:56;;;;;;;0.30;0.30;;;2.80;99.90;;;;;;8346475;28;20032;-68
2020/12/25 00:55:56;;;;;;;0.85;0.30;;;2.80;99.90;;;;;;8331421;28;20029;-68
2020/12/25 00:59:57;;;;;;;0.10;0.10;;;2.70;99.90;;;;;;8331034;28;20097;-68
2020/12/25 01:03:57;;;;;;;0.17;0.17;;;2.60;99.90;;;;;;8330835;28;20415;-68
2020/12/25 01:07:58;;;;;;;0.15;0.10;;;2.50;99.90;;;;;;8330930;28;20025;-68
2020/12/25 01:11:59;;;;;;;0.20;0.20;;;2.50;99.90;;;;;;8330691;28;20029;-68
2020/12/25 01:16:10;;;;;;;0.10;0.10;;;2.50;99.90;;;;;;8329737;28;20039;-68
2020/12/25 01:20:10;;;;;;;0.13;0.13;;;2.40;99.90;;;;;;8330344;28;20021;-68
2020/12/25 01:24:11;;;;;;;0.10;0.10;;;2.40;99.90;;;;;;8345920;28;20144;-68
2020/12/25 01:28:11;;;;;;;0.00;0.00;;;2.30;99.90;;;;;;8345960;28;20022;-68
2020/12/25 01:32:12;;;;;;;0.10;0.10;;;2.40;99.90;;;;;;8329992;28;20407;-68
2020/12/25 01:36:12;;;;;;;0.10;0.10;;;2.30;99.90;;;;;;8330286;28;20018;-68
2020/12/25 01:40:13;;;;;;;0.10;0.10;;;2.30;99.90;;;;;;8328197;28;20030;-68
2020/12/25 01:44:13;;;;;;;0.10;0.10;;;2.30;99.90;;;;;;8329762;28;20626;-68
2020/12/25 01:48:14;;;;;;;0.10;0.10;;;2.30;99.90;;;;;;8344850;28;20139;-68
2020/12/25 01:52:15;;;;;;;0.10;0.10;;;2.30;99.90;;;;;;8329110;28;20036;-68
2020/12/25 01:56:17;;;;;;;0.13;0.13;;;2.30;99.90;;;;;;8329368;28;20029;-68
2020/12/25 02:00:18;;;;;;;0.10;0.10;;;2.30;99.90;;;;;;8344737;28;20087;-68
2020/12/25 02:04:19;;;;;;;0.80;0.15;;;2.30;99.90;;;;;;8329047;28;20033;-68
2020/12/25 02:08:19;;;;;;;0.20;0.20;;;2.30;99.90;;;;;;8328815;28;20033;-68
2020/12/25 02:12:20;;;;;;;1.15;0.20;;;2.20;99.90;;;;;;8328687;28;20438;-68
2020/12/25 02:16:21;;;;;;;0.10;0.10;;;2.30;99.90;;;;;;8327608;28;20029;-68
2020/12/25 02:20:21;;;;;;;0.13;0.10;;;2.20;99.90;;;;;;8328164;28;20068;-69
2020/12/25 02:24:22;;;;;;;0.10;0.10;;;2.20;99.90;;;;;;8343831;28;20380;-68
2020/12/25 02:28:22;;;;;;;0.20;0.20;;;2.20;99.90;;;;;;8328616;28;20025;-69
2020/12/25 02:32:23;;;;;;;0.10;0.10;;;2.30;99.90;;;;;;8328080;28;20554;-68
2020/12/25 02:36:23;;;;;;;0.10;0.10;;;2.20;99.90;;;;;;8327912;28;20540;-68
2020/12/25 02:40:24;;;;;;;0.15;0.15;;;2.20;99.90;;;;;;8327605;28;20480;-68
2020/12/25 02:44:24;;;;;;;0.40;0.30;;;2.30;99.90;;;;;;8343044;28;20056;-68
2020/12/25 02:48:25;;;;;;;0.13;0.13;;;2.30;99.90;;;;;;8342717;28;20472;-67
2020/12/25 02:52:26;;;;;;;0.40;0.20;;;2.30;99.90;;;;;;8326723;28;20104;-68
2020/12/25 02:56:26;;;;;;;0.10;0.10;;;2.30;99.90;;;;;;8343009;28;20037;-68
2020/12/25 03:00:27;;;;;;;0.20;0.20;;;2.20;99.90;;;;;;8327229;28;20030;-68
2020/12/25 03:04:28;;;;;;;0.63;0.20;;;2.20;99.90;;;;;;8327124;28;20091;-68
2020/12/25 03:08:29;;;;;;;0.20;0.20;;;2.00;99.90;;;;;;8325003;28;20025;-68
2020/12/25 03:12:29;;;;;;;0.10;0.10;;;2.00;99.90;;;;;;8326726;28;20061;-68
2020/12/25 03:16:30;;;;;;;0.22;0.20;;;2.00;99.90;;;;;;8327038;28;20029;-67
2020/12/25 03:20:31;;;;;;;1.08;0.17;;;2.10;99.90;;;;;;8325320;28;20062;-68
2020/12/25 03:24:31;;;;;;;0.30;0.30;;;2.00;99.90;;;;;;8326952;28;20040;-68
2020/12/25 03:28:32;;;;;;;0.30;0.25;;;2.00;99.90;;;;;;8326788;28;20077;-68
2020/12/25 03:32:33;;;;;;;0.35;0.30;;;2.00;99.90;;;;;;8326623;28;20056;-68
2020/12/25 03:36:33;;;;;;;0.40;0.40;;;2.10;99.90;;;;;;8326653;28;20029;-68
2020/12/25 03:40:34;;;;;;;0.40;0.40;;;2.10;99.90;;;;;;8326292;28;20022;-68
2020/12/25 03:44:34;;;;;;;0.30;0.30;;;2.10;99.90;;;;;;8326627;28;20026;-67
2020/12/25 03:48:35;;;;;;;0.50;0.50;;;2.20;99.90;;;;;;8326142;28;20057;-67
2020/12/25 03:52:35;;;;;;;0.40;0.40;;;2.20;99.90;;;;;;8326364;28;20498;-67
2020/12/25 03:56:36;;;;;;;0.30;0.30;;;2.20;99.90;;;;;;8325155;28;20026;-67
2020/12/25 04:00:37;;;;;;;0.60;0.50;;;2.20;99.90;;;;;;8326159;28;20439;-68
2020/12/25 04:04:37;;;;;;;0.30;0.30;;;2.10;99.90;;;;;;8346343;28;20112;-68
2020/12/25 04:08:38;;;;;;;0.55;0.55;;;2.10;99.90;;;;;;8347866;28;20032;-67
2020/12/25 04:12:38;;;;;;;1.15;0.60;;;2.10;99.90;;;;;;8365525;28;20119;-68
2020/12/25 04:16:39;;;;;;;0.70;0.70;;;2.10;99.90;;;;;;8365366;28;20029;-67
2020/12/25 04:20:39;;;;;;;1.15;1.05;;;2.20;99.90;;;;;;8334937;28;20033;-68
2020/12/25 04:24:40;;;;;;;1.20;1.10;;;2.20;99.90;;;;;;8347443;28;20104;-68
2020/12/25 04:28:40;;;;;;;1.77;1.50;;;2.40;99.90;;;;;;8331726;28;20071;-67
2020/12/25 04:32:41;;;;;;;1.98;1.60;;;2.20;99.90;;;;;;8331532;28;20064;-68
2020/12/25 04:36:41;;;;;;;1.58;1.48;;;2.20;99.90;;;;;;8331505;28;20030;-68
2020/12/25 04:40:43;;;;;;;1.75;1.60;;;2.30;99.90;;;;;;8346621;28;20037;-68
2020/12/25 04:44:43;;;;;;;2.10;1.80;;;2.40;99.90;;;;;;8331479;28;20562;-67
2020/12/25 04:48:45;;;;;;;1.73;1.60;;;2.40;99.90;;;;;;8346325;28;20116;-67
2020/12/25 04:52:49;;;;;;;1.40;1.30;;;2.30;99.90;;;;;;8331124;28;20037;-67
2020/12/25 04:56:49;;;;;;;1.60;1.50;;;2.30;99.90;;;;;;8329851;28;20032;-67
2020/12/25 05:01:02;;;;;;;1.65;1.40;;;2.30;99.90;;;;;;8330637;28;20061;-68
2020/12/25 05:05:03;;;;;;;1.45;1.35;;;2.10;99.90;;;;;;8330585;28;20121;-67
2020/12/25 05:09:03;;;;;;;2.17;1.90;;;2.10;99.90;;;;;;8330708;28;20022;-67
2020/12/25 05:13:05;;;;;;;1.60;1.40;;;2.10;99.90;;;;;;8330737;28;20021;-67
2020/12/25 05:17:10;;;;;;;2.10;1.70;;;2.10;99.90;;;;;;8329765;28;20037;-68
2020/12/25 05:21:13;;;;;;;1.65;1.48;;;2.00;99.90;;;;;;8330108;28;20551;-67
2020/12/25 05:25:15;;;;;;;3.75;1.60;;;2.10;99.90;;;;;;8328953;28;20036;-68
2020/12/25 05:29:16;;;;;;;2.30;1.63;;;2.10;99.90;;;;;;8328812;28;20024;-67
2020/12/25 05:33:17;;;;;;;1.95;1.70;;;2.30;99.90;;;;;;8329951;28;20037;-68
2020/12/25 05:37:18;;;;;;;2.47;1.98;;;2.10;99.90;;;;;;8329969;28;20152;-68
2020/12/25 05:41:19;;;;;;;2.30;2.00;;;2.10;99.90;;;;;;8332818;28;20476;-68
2020/12/25 05:45:21;;;;;;;2.58;2.08;;;2.20;99.90;;;;;;8337383;28;20112;-68
2020/12/25 05:49:21;;;;;;;2.28;1.92;;;2.30;99.90;;;;;;8337746;28;20029;-68
2020/12/25 05:53:22;;;;;;;3.70;2.20;;;2.20;99.90;;;;;;8337538;28;20029;-67
2020/12/25 05:57:23;;;;;;;2.97;2.15;;;2.10;99.90;;;;;;8340292;28;20156;-67
2020/12/25 06:01:24;;;;;;;3.97;2.38;;;2.20;99.90;;;;;;8358659;28;20531;-68
2020/12/25 06:05:25;;;;;;;3.42;2.55;;;2.00;99.90;;;;;;8336851;28;20030;-67
2020/12/25 06:09:31;;;;;;;3.17;2.45;;;2.00;99.90;;;;;;8342032;28;21277;-68
2020/12/25 06:13:42;;;;;;;3.10;2.30;;;2.10;99.90;;;;;;8342798;28;20021;-68
2020/12/25 06:17:55;;;;;;;3.25;2.58;;;2.10;99.90;;;;;;8344605;28;20104;-68
2020/12/25 06:22:01;;;;;;;5.18;3.00;;;1.90;99.90;;;;;;8342380;28;20043;-68
2020/12/25 06:26:07;;;;;;;3.10;2.58;;;1.90;99.90;;;;;;8359935;28;20025;-68
2020/12/25 06:30:07;;;;;;;3.30;2.80;;;2.10;99.90;;;;;;8347301;28;20033;-67
2020/12/25 06:34:08;;;;;;;4.13;2.85;;;2.10;99.90;;;;;;8343811;28;20407;-68
2020/12/25 06:38:13;;;;;;;4.03;3.10;;;2.10;99.90;;;;;;8343053;28;20040;-68
2020/12/25 06:42:19;;;;;;;3.25;2.60;;;2.10;99.90;;;;;;8344429;28;20423;-67
2020/12/25 06:46:33;;;;;;;4.13;2.42;;;2.20;99.90;;;;;;8346397;28;20029;-68
2020/12/25 06:51:00;;;;;;;3.88;2.80;;;2.20;99.90;;;;;;8352411;28;20029;-68
2020/12/25 06:55:06;;;;;;;3.25;2.65;;;2.10;99.90;;;;;;8341585;28;20072;-68
2020/12/25 06:59:14;;;;;;;3.97;2.85;;;2.10;99.90;;;;;;8350874;28;20405;-68
2020/12/25 07:03:15;;;;;;;3.47;2.72;;;2.10;99.90;;;;;;8358093;28;20028;-67
2020/12/25 07:07:19;;;;;;;3.00;2.42;;;1.90;99.90;;;;;;8340308;28;20356;-67
2020/12/25 07:11:19;;;;;;;3.28;2.58;;;1.90;99.90;;;;;;8328704;28;20120;-67
2020/12/25 07:15:20;;;;;;;3.45;2.85;;;1.90;99.90;;;;;;8328350;28;20026;-68
2020/12/25 07:19:20;;;;;;;3.08;2.65;;;1.90;99.90;;;;;;8324357;28;20068;-72
2020/12/25 07:23:21;;;;;;;3.15;2.63;;;2.00;99.90;;;;;;8294155;28;20061;-71
2020/12/25 07:27:22;;;;;;;3.50;2.70;;;2.10;99.90;;;;;;8328143;28;20377;-68
2020/12/25 07:31:22;;;;;;;2.92;2.15;;;2.00;99.90;;;;;;8342368;28;20404;-68
2020/12/25 07:35:23;;;;;;;3.40;2.40;;;2.00;99.90;;;;;;8341521;28;20025;-68
2020/12/25 07:39:26;;;;;;;3.50;2.47;;;1.90;99.90;;;;;;8347514;28;20025;-68
2020/12/25 07:43:26;;;;;;;2.67;1.80;;;1.90;99.90;;;;;;8349377;28;20037;-68
2020/12/25 07:47:27;;;;;;;3.20;2.35;;;2.00;99.90;;;;;;8331388;28;20021;-68
2020/12/25 07:51:28;;;;;;;4.53;2.47;;;1.90;99.90;;;;;;8314829;28;20033;-68
2020/12/25 07:55:29;;;;;;;3.13;2.17;;;2.00;99.90;;;;;;8329128;28;20391;-68
2020/12/25 07:59:30;;;;;;;3.67;2.53;;;2.00;99.90;;;;;;8347064;28;20108;-68
2020/12/25 08:03:32;;;;;;;3.95;2.90;;;2.10;99.90;;;;;;8330392;28;20408;-67
2020/12/25 08:07:39;;;;;;;2.58;2.05;;;2.10;99.90;;;;;;8332131;28;20071;-68
2020/12/25 08:11:40;;;;;;;2.47;2.10;;;2.20;99.90;;;;;;8334760;28;20049;-68
2020/12/25 08:15:41;;;;;;;2.42;1.95;;;2.30;99.90;;;;;;8343249;28;20022;-68
2020/12/25 08:19:46;;;;;;;3.03;2.30;;;2.30;99.90;;;;;;8327781;28;20032;-67
2020/12/25 08:23:47;;;;;;;2.65;1.88;;;2.30;99.90;;;;;;8327232;28;20468;-68
2020/12/25 08:27:48;;;;;;;2.75;1.73;;;2.30;99.90;;;;;;8329960;28;20025;-68
2020/12/25 08:31:48;;;;;;;2.47;1.73;;;2.40;99.90;;;;;;8327914;28;20100;-69
2020/12/25 08:35:49;;;;;;;2.28;1.63;;;2.40;99.90;;;;;;8315953;28;20647;-68
2020/12/25 08:39:51;;;;;;;2.67;2.15;;;2.40;99.90;;;;;;8328022;28;20072;-69
2020/12/25 08:43:52;;;;;;;2.63;1.98;;;2.40;99.90;;;;;;8327525;28;20028;-69
2020/12/25 08:48:07;;;;;;;2.20;2.00;;;2.50;99.90;;;;;;8340466;28;20022;-68
2020/12/25 08:52:21;;;;;;;3.40;2.30;;;2.60;99.90;;;;;;8324472;28;20052;-69
2020/12/25 08:56:25;;;;;;;2.05;1.83;;;2.50;99.90;;;;;;8324887;28;20487;-69
2020/12/25 09:00:26;;;;;;;2.17;1.98;;;2.70;99.90;;;;;;8337176;28;20501;-71
2020/12/25 09:04:27;;;;;;;2.70;2.28;;;2.70;99.90;;;;;;8315403;28;20040;-73
2020/12/25 09:08:30;;;;;;;1.90;1.70;;;2.70;99.90;;;;;;8343978;28;20021;-70
2020/12/25 09:12:30;;;;;;;2.67;1.60;;;2.90;99.90;;;;;;8352046;28;20025;-71
2020/12/25 09:16:31;;;;;;;2.25;1.50;;;2.80;99.90;;;;;;8333341;28;20027;-77
2020/12/25 09:20:32;;;;;;;2.40;1.80;;;2.80;99.90;;;;;;8345515;28;20028;-73
2020/12/25 09:24:32;;;;;;;1.80;1.63;;;2.70;99.90;;;;;;8358764;28;20018;-73
2020/12/25 09:28:33;;;;;;;1.77;1.60;;;2.70;99.90;;;;;;8339233;28;20718;-78
2020/12/25 09:32:34;;;;;;;2.92;2.30;;;2.70;99.90;;;;;;8348682;28;20029;-73
2020/12/25 09:36:34;;;;;;;2.10;1.90;;;2.70;99.90;;;;;;8333065;28;20030;-71
2020/12/25 09:40:35;;;;;;;0.73;0.63;;;2.70;99.90;;;;;;8333952;28;20480;-72
2020/12/25 09:44:36;;;;;;;3.10;2.40;;;2.60;99.90;;;;;;8354931;28;20078;-75
2020/12/25 09:48:37;;;;;;;3.38;2.25;;;2.60;99.90;;;;;;8343927;28;20539;-74
2020/12/25 09:52:37;;;;;;;2.70;2.35;;;2.70;99.90;;;;;;8351865;28;20044;-72
2020/12/25 09:56:38;;;;;;;2.42;1.95;;;2.80;99.90;;;;;;8348325;28;20037;-70
2020/12/25 10:00:39;;;;;;;2.90;2.30;;;2.90;99.90;;;;;;8336711;28;20381;-72
2020/12/25 10:04:39;;;;;;;2.90;2.40;;;2.90;99.90;;;;;;8333483;28;20191;-71
2020/12/25 10:08:41;;;;;;;3.80;2.05;;;2.80;99.90;;;;;;8337409;28;20025;-76
2020/12/25 10:12:41;;;;;;;3.45;2.63;;;2.90;99.90;;;;;;8342410;28;20500;-74
2020/12/25 10:16:42;;;;;;;5.10;3.53;;;2.90;99.90;;;;;;8334991;28;20014;-68
2020/12/25 10:20:43;;;;;;;4.78;3.60;;;3.20;99.90;;;;;;8337308;28;20037;-73
2020/12/25 10:24:44;;;;;;;4.55;2.90;;;3.40;99.90;;;;;;8340368;28;20620;-70
2020/12/25 10:28:44;;;;;;;3.40;2.45;;;3.50;99.90;;;;;;8340597;28;20382;-71
2020/12/25 10:32:45;;;;;;;3.55;2.60;;;3.70;99.90;;;;;;8318668;28;20483;-70
2020/12/25 10:36:45;;;;;;;3.85;3.13;;;4.00;99.90;;;;;;8327820;28;20082;-70
2020/12/25 10:40:47;;;;;;;3.40;2.45;;;4.30;99.90;;;;;;8323713;28;20033;-70
2020/12/25 10:44:47;;;;;;;3.80;2.60;;;4.60;99.90;;;;;;8327749;28;20488;-70
2020/12/25 10:48:48;;;;;;;4.07;2.80;;;4.60;99.90;;;;;;8312872;28;20076;-70
2020/12/25 10:52:48;;;;;;;4.38;2.95;;;4.50;99.90;;;;;;8338948;28;20037;-70
2020/12/25 10:56:50;;;;;;;5.43;3.25;;;4.50;99.90;;;;;;8360421;28;20074;-70
2020/12/25 11:00:50;;;;;;;4.68;3.20;;;4.40;99.90;;;;;;8358391;28;20033;-70
2020/12/25 11:04:51;;;;;;;4.68;3.03;;;4.40;99.90;;;;;;8359371;28;20394;-70
2020/12/25 11:08:51;;;;;;;6.15;3.45;;;4.40;99.90;;;;;;8358337;28;20287;-70
2020/12/25 11:12:52;;;;;;;4.13;3.20;;;4.10;99.90;;;;;;8346459;28;20044;-70
2020/12/25 11:16:55;;;;;;;4.30;3.42;;;4.20;99.90;;;;;;8348298;28;20025;-70
2020/12/25 11:20:55;;;;;;;4.05;3.40;;;4.50;99.90;;;;;;8326123;28;20026;-70
2020/12/25 11:24:56;;;;;;;4.88;3.35;;;4.40;99.90;;;;;;8319585;28;20017;-71
2020/12/25 11:28:59;;;;;;;5.57;3.53;;;4.30;99.90;;;;;;8323550;28;20120;-70
2020/12/25 11:32:59;;;;;;;5.07;3.33;;;4.40;99.90;;;;;;8324070;28;20041;-70
2020/12/25 11:37:00;;;;;;;5.05;3.20;;;4.30;99.90;;;;;;8317326;28;20056;-70
2020/12/25 11:41:00;;;;;;;4.82;3.50;;;4.20;99.90;;;;;;8320113;28;20536;-70
2020/12/25 11:45:01;;;;;;;4.93;3.28;;;4.00;99.90;;;;;;8318007;28;20033;-67
2020/12/25 11:49:05;;;;;;;4.20;3.30;;;4.00;99.90;;;;;;8331182;28;20033;-69
2020/12/25 11:53:06;;;;;;;4.38;2.90;;;3.90;99.90;;;;;;8312877;28;20530;-69
2020/12/25 11:57:06;;;;;;;4.45;3.05;;;3.70;99.90;;;;;;8336592;28;20021;-69
2020/12/25 12:01:07;;;;;;;3.80;2.75;;;3.60;99.90;;;;;;8335971;28;20025;-69
2020/12/25 12:05:07;;;;;;;4.53;3.13;;;3.80;99.90;;;;;;8326965;28;20028;-68
2020/12/25 12:09:08;;;;;;;4.05;2.92;;;3.80;99.90;;;;;;8325484;28;20480;-69
2020/12/25 12:13:08;;;;;;;5.00;2.95;;;3.90;99.90;;;;;;8335901;28;20021;-69
2020/12/25 12:17:09;;;;;;;4.50;3.10;;;3.70;99.90;;;;;;8326041;28;20032;-72
2020/12/25 12:21:10;;;;;;;3.30;2.60;;;3.70;99.90;;;;;;8312764;28;20391;-70
2020/12/25 12:25:11;;;;;;;3.55;2.70;;;3.80;99.90;;;;;;8319506;28;20136;-71
2020/12/25 12:29:12;;;;;;;3.72;2.60;;;3.40;99.90;;;;;;8326978;28;20659;-71
2020/12/25 12:33:13;;;;;;;3.50;2.58;;;3.20;99.90;;;;;;8318497;28;20036;-69
2020/12/25 12:37:14;;;;;;;4.00;2.75;;;3.30;99.90;;;;;;8330225;28;20032;-70
2020/12/25 12:41:15;;;;;;;3.10;2.75;;;3.40;99.90;;;;;;8315040;28;20026;-73
2020/12/25 12:45:15;;;;;;;3.35;2.90;;;3.50;99.90;;;;;;8316113;28;20049;-74
2020/12/25 12:49:16;;;;;;;3.42;2.65;;;4.00;99.90;;;;;;8316554;28;20099;-69
2020/12/25 12:53:18;;;;;;;3.90;3.28;;;4.10;99.90;;;;;;8318059;28;20076;-74
2020/12/25 12:57:18;;;;;;;4.53;2.97;;;4.00;99.90;;;;;;8327003;28;20029;-70
2020/12/25 13:01:20;;;;;;;3.63;2.83;;;3.90;99.90;;;;;;8318050;28;20403;-69
2020/12/25 13:05:21;;;;;;;4.00;2.45;;;3.80;99.90;;;;;;8316374;28;20017;-72
2020/12/25 13:09:22;;;;;;;4.20;2.80;;;3.80;99.90;;;;;;8312870;28;20060;-71
2020/12/25 13:13:24;;;;;;;3.50;3.10;;;4.10;99.90;;;;;;8327219;28;20028;-70
2020/12/25 13:17:24;;;;;;;4.18;2.75;;;4.40;99.90;;;;;;8329836;28;20048;-73
2020/12/25 13:21:27;;;;;;;3.85;2.72;;;4.50;99.90;;;;;;8335628;28;20032;-67
2020/12/25 13:25:27;;;;;;;3.60;2.65;;;4.30;99.90;;;;;;8333167;28;20037;-67
2020/12/25 13:29:28;;;;;;;3.78;2.58;;;4.40;99.90;;;;;;8355837;28;20147;-67
2020/12/25 13:33:28;;;;;;;3.83;2.78;;;4.40;99.90;;;;;;8338892;28;20040;-67
2020/12/25 13:37:29;;;;;;;3.60;2.72;;;4.20;99.90;;;;;;8352816;28;20037;-67
2020/12/25 13:41:29;;;;;;;5.10;3.30;;;4.20;99.90;;;;;;8346381;28;20025;-70
2020/12/25 13:45:30;;;;;;;4.70;3.10;;;4.10;99.90;;;;;;8341849;28;20026;-70
2020/12/25 13:49:30;;;;;;;4.60;2.95;;;3.60;99.90;;;;;;8320955;28;20025;-68
2020/12/25 13:53:31;;;;;;;4.45;3.47;;;3.60;99.90;;;;;;8326587;28;20060;-69
2020/12/25 13:57:32;;;;;;;4.82;3.25;;;3.70;99.90;;;;;;8301107;28;20033;-69
2020/12/25 14:01:34;;;;;;;5.15;3.45;;;3.60;99.90;;;;;;8323394;28;20055;-69
2020/12/25 14:05:35;;;;;;;4.45;3.30;;;3.50;99.90;;;;;;8336286;28;20440;-69
2020/12/25 14:09:37;;;;;;;6.88;3.40;;;3.50;99.90;;;;;;8331802;28;20026;-70
2020/12/25 14:13:38;;;;;;;4.90;3.50;;;3.50;99.90;;;;;;8333129;28;20045;-69
2020/12/25 14:17:38;;;;;;;6.72;3.50;;;3.50;99.90;;;;;;8322889;28;20565;-70
2020/12/25 14:21:39;;;;;;;4.85;3.30;;;3.50;99.90;;;;;;8325760;28;20120;-70
2020/12/25 14:25:39;;;;;;;4.75;3.13;;;3.40;99.90;;;;;;8328809;28;20049;-69
2020/12/25 14:29:40;;;;;;;7.90;3.90;;;3.30;99.90;;;;;;8326289;28;20105;-69
2020/12/25 14:33:40;;;;;;;4.95;3.63;;;3.00;99.90;;;;;;8325652;28;20036;-69
2020/12/25 14:37:41;;;;;;;6.55;4.63;;;2.90;99.90;;;;;;8327701;28;20034;-69
2020/12/25 14:41:41;;;;;;;8.55;5.65;;;2.70;99.90;;;;;;8327273;28;20032;-69
2020/12/25 14:45:42;;;;;;;9.68;5.43;;;2.60;99.90;;;;;;8314527;28;20017;-70
2020/12/25 14:49:42;;;;;;;6.97;4.55;;;2.60;99.90;;;;;;8302870;28;20053;-70
2020/12/25 14:53:43;;;;;;;8.55;4.80;;;2.50;99.90;;;;;;8293213;28;20476;-69
2020/12/25 14:57:44;;;;;;;7.07;4.72;;;2.50;99.90;;;;;;8305398;28;20531;-70
2020/12/25 15:01:44;;;;;;;8.48;7.55;;;2.60;99.90;;;;;;8329966;28;20037;-70
2020/12/25 15:05:45;;;;;;;8.30;5.55;;;2.60;99.90;;;;;;8311352;28;20092;-70
2020/12/25 15:09:45;;;;;;;14.38;8.65;;;2.40;99.90;;;;;;8295132;28;20032;-70
2020/12/25 15:13:46;;;;;;;8.68;6.18;;;2.40;99.90;;;;;;8306061;28;20385;-70
2020/12/25 15:17:46;;;;;;;9.85;6.07;;;2.30;99.90;;;;;;8323767;28;20480;-69
2020/12/25 15:21:48;;;;;;;5.93;4.30;;;2.40;99.90;;;;;;8324356;28;20411;-70
2020/12/25 15:25:48;;;;;;;7.10;5.07;;;2.30;99.90;;;;;;8324019;28;20083;-70
2020/12/25 15:29:49;;;;;;;7.68;5.20;;;2.20;99.90;;;;;;8342522;28;20053;-70
2020/12/25 15:33:49;;;;;;;8.02;4.57;;;2.20;99.90;;;;;;8340839;28;20029;-70
2020/12/25 15:37:50;;;;;;;6.75;4.38;;;2.10;99.90;;;;;;8336679;28;20026;-70
2020/12/25 15:41:50;;;;;;;5.80;3.47;;;2.00;99.90;;;;;;8332301;28;20028;-69
2020/12/25 15:45:51;;;;;;;5.70;3.88;;;2.20;99.90;;;;;;8357006;28;20082;-69
2020/12/25 15:49:51;;;;;;;7.55;4.22;;;2.10;99.90;;;;;;8334808;28;20064;-69
2020/12/25 15:53:52;;;;;;;6.75;4.00;;;2.10;99.90;;;;;;8335966;28;20121;-70
2020/12/25 15:57:53;;;;;;;7.70;4.88;;;2.00;99.90;;;;;;8336692;28;20029;-73
2020/12/25 16:01:53;;;;;;;5.80;3.90;;;2.10;99.90;;;;;;8343399;28;20484;-71
2020/12/25 16:05:54;;;;;;;8.15;4.30;;;2.00;99.90;;;;;;8326957;28;20029;-71
2020/12/25 16:09:55;;;;;;;6.30;3.83;;;1.90;99.90;;;;;;8329720;28;20033;-71
2020/12/25 16:13:56;;;;;;;4.63;3.20;;;1.90;99.90;;;;;;8312449;28;20073;-71
2020/12/25 16:17:57;;;;;;;6.32;4.13;;;1.90;99.90;;;;;;8336004;28;20030;-71
2020/12/25 16:21:57;;;;;;;6.32;4.18;;;1.90;99.90;;;;;;8342263;28;20056;-71
2020/12/25 16:25:58;;;;;;;6.45;4.20;;;1.80;99.90;;;;;;8337705;28;20503;-71
2020/12/25 16:29:59;;;;;;;6.38;4.28;;;1.90;99.90;;;;;;8343017;28;20068;-72
2020/12/25 16:34:00;;;;;;;7.57;4.28;;;1.90;99.90;;;;;;8341488;28;20034;-71
2020/12/25 16:38:01;;;;;;;7.55;4.55;;;2.00;99.90;;;;;;8341395;28;20061;-69
2020/12/25 16:42:01;;;;;;;4.40;2.72;;;2.00;99.90;;;;;;8346605;28;20570;-68
2020/12/25 16:46:02;;;;;;;6.43;4.15;;;2.00;99.90;;;;;;8356390;28;20403;-68
2020/12/25 16:50:05;;;;;;;7.10;4.22;;;1.80;99.90;;;;;;8344101;28;20506;-66
2020/12/25 16:54:06;;;;;;;7.68;4.45;;;1.80;99.90;;;;;;8346938;28;20021;-66
2020/12/25 16:58:06;;;;;;;3.17;2.13;;;1.80;99.90;;;;;;8331548;28;20046;-66
2020/12/25 17:02:07;;;;;;;7.88;4.40;;;1.70;99.90;;;;;;8323376;28;20060;-67
2020/12/25 17:06:08;;;;;;;4.93;3.85;;;1.60;99.90;;;;;;8312347;28;20535;-67
2020/12/25 17:10:08;;;;;;;6.95;4.20;;;1.70;99.90;;;;;;8313862;28;20026;-67
2020/12/25 17:14:09;;;;;;;6.43;3.72;;;1.70;99.90;;;;;;8315462;28;20048;-67
2020/12/25 17:18:09;;;;;;;7.60;4.70;;;1.70;99.90;;;;;;8315454;28;20036;-67
2020/12/25 17:22:10;;;;;;;7.15;4.30;;;1.50;99.90;;;;;;8328136;28;20385;-67
2020/12/25 17:26:13;;;;;;;7.53;4.40;;;1.50;99.90;;;;;;8329191;28;20037;-67
2020/12/25 17:30:13;;;;;;;6.15;3.72;;;1.40;99.90;;;;;;8326949;28;20484;-67
2020/12/25 17:34:14;;;;;;;6.70;4.45;;;1.20;99.90;;;;;;8327224;28;20029;-66
2020/12/25 17:38:16;;;;;;;6.30;3.47;;;1.20;99.90;;;;;;8325669;28;20026;-67
2020/12/25 17:42:17;;;;;;;6.03;3.42;;;1.10;99.90;;;;;;8325107;28;20427;-67
2020/12/25 17:46:20;;;;;;;4.35;2.60;;;1.10;99.90;;;;;;8327641;28;20036;-68
2020/12/25 17:50:20;;;;;;;11.68;6.00;;;1.10;99.90;;;;;;8322086;28;20108;-68
2020/12/25 17:54:21;;;;;;;5.97;4.05;;;1.10;99.90;;;;;;8331275;28;20554;-69
2020/12/25 17:58:21;;;;;;;9.30;6.07;;;1.30;99.90;;;;;;8345210;28;20029;-73
2020/12/25 18:02:22;;;;;;;8.52;5.40;;;1.40;99.90;;;;;;8324350;28;20026;-68
2020/12/25 18:06:22;;;;;;;10.85;6.03;;;1.50;99.90;;;;;;8311213;28;20026;-68
2020/12/25 18:10:23;;;;;;;7.68;5.22;;;1.50;99.90;;;;;;8315476;28;20492;-68
2020/12/25 18:14:49;;;;;;;10.82;4.82;;;1.50;99.90;;;;;;8321894;28;20029;-66
2020/12/25 18:18:49;;;;;;;8.15;5.32;;;1.50;99.90;;;;;;8310747;28;20121;-69
2020/12/25 18:22:50;;;;;;;8.02;4.70;;;1.70;99.90;;;;;;8311063;28;20029;-68
2020/12/25 18:26:50;;;;;;;6.53;4.78;;;1.60;99.90;;;;;;8337757;28;20025;-69
2020/12/25 18:30:51;;;;;;;9.73;4.72;;;1.70;99.90;;;;;;8313253;28;20026;-69
2020/12/25 18:34:51;;;;;;;7.53;4.30;;;1.70;99.90;;;;;;8331946;28;20030;-68
2020/12/25 18:38:52;;;;;;;6.93;4.15;;;1.60;99.90;;;;;;8312499;28;20099;-70
2020/12/25 18:42:53;;;;;;;6.50;3.67;;;1.50;99.90;;;;;;8308891;28;20108;-68
2020/12/25 18:46:54;;;;;;;8.25;4.65;;;1.50;99.90;;;;;;8307250;28;20549;-67
2020/12/25 18:50:55;;;;;;;6.05;4.43;;;1.50;99.90;;;;;;8317731;28;20021;-67
2020/12/25 18:54:56;;;;;;;10.90;4.50;;;1.40;99.90;;;;;;8300223;28;20065;-67
2020/12/25 18:58:59;;;;;;;6.22;4.13;;;1.50;99.90;;;;;;8326013;28;20033;-66
2020/12/25 19:03:00;;;;;;;7.35;4.32;;;1.30;99.90;;;;;;8318924;28;20041;-67
2020/12/25 19:07:00;;;;;;;7.78;3.15;;;1.40;99.90;;;;;;8318743;28;20052;-67
2020/12/25 19:11:02;;;;;;;6.60;4.53;;;1.30;99.90;;;;;;8302747;28;20034;-66
2020/12/25 19:15:03;;;;;;;7.72;3.90;;;1.10;99.90;;;;;;8294117;28;20033;-67
2020/12/25 19:19:03;;;;;;;7.35;4.13;;;1.20;99.90;;;;;;8289348;28;20084;-67
2020/12/25 19:23:04;;;;;;;7.72;4.07;;;1.10;99.90;;;;;;8288703;28;20537;-67
2020/12/25 19:27:06;;;;;;;6.65;3.92;;;1.00;99.90;;;;;;8300247;28;20164;-67
2020/12/25 19:31:12;;;;;;;5.75;4.00;;;1.00;99.90;;;;;;8325317;28;20120;-68
2020/12/25 19:35:12;;;;;;;6.75;4.28;;;0.80;99.90;;;;;;8314796;28;20036;-67
2020/12/25 19:44:10;;;;;;;7.72;3.97;;;0.70;99.90;;;;;;8296346;28;20076;-67
2020/12/25 19:48:11;;;;;;;5.18;3.25;;;0.70;99.90;;;;;;8291885;28;20552;-67
2020/12/25 19:52:12;;;;;;;5.30;3.17;;;0.80;99.90;;;;;;8291207;28;20105;-68
2020/12/25 19:56:12;;;;;;;5.32;3.25;;;0.90;99.90;;;;;;8288007;28;20496;-67
2020/12/25 20:05:11;;;;;;;4.25;2.85;;;0.80;99.90;;;;;;8300905;28;20610;-67
2020/12/25 20:09:13;;;;;;;3.80;3.15;;;0.90;99.90;;;;;;8298037;28;20040;-67
2020/12/25 20:13:13;;;;;;;4.65;3.13;;;0.90;99.90;;;;;;8283955;28;20080;-67
2020/12/25 20:17:14;;;;;;;5.53;2.45;;;0.80;99.90;;;;;;8287007;28;20536;-67
2020/12/25 20:31:16;;;;;;;4.03;1.95;;;0.70;99.90;;;;;;8305558;28;20083;-67
2020/12/25 20:35:17;;;;;;;4.35;2.20;;;0.60;99.90;;;;;;8303158;28;20041;-68
2020/12/25 20:39:18;;;;;;;3.92;1.80;;;0.50;99.90;;;;;;8315140;28;20396;-67
2020/12/25 20:53:15;;;;;;;4.25;2.17;;;0.20;99.90;;;;;;8313466;28;20408;-67
2020/12/25 20:57:15;;;;;;;3.75;2.45;;;0.10;99.90;;;;;;8299536;28;20029;-67
2020/12/25 21:01:16;;;;;;;3.88;2.40;;;0.10;99.90;;;;;;8318498;28;20520;-67
2020/12/25 21:10:19;;;;;;;5.68;2.20;;;0.10;99.90;;;;;;8337369;28;20144;-67
2020/12/25 21:14:19;;;;;;;3.42;2.75;;;0.20;99.90;;;;;;8340707;28;20040;-67
2020/12/25 21:18:26;;;;;;;4.88;2.45;;;0.20;99.90;;;;;;8307655;28;20037;-67
2020/12/25 21:22:27;;;;;;;2.17;1.80;;;0.20;99.90;;;;;;8321647;28;20404;-67
2020/12/25 21:26:28;;;;;;;3.25;2.55;;;0.20;99.90;;;;;;8339338;28;20033;-66
2020/12/25 21:30:28;;;;;;;3.03;2.40;;;0.20;99.90;;;;;;8317728;28;20051;-67
2020/12/25 21:34:30;;;;;;;3.63;2.70;;;0.30;99.90;;;;;;8320115;28;20071;-67
2020/12/25 21:38:30;;;;;;;3.15;2.30;;;0.30;99.90;;;;;;8321666;28;20048;-67
2020/12/25 21:42:31;;;;;;;3.25;2.15;;;0.30;99.90;;;;;;8319318;28;20028;-67
2020/12/25 21:46:33;;;;;;;4.22;1.88;;;0.30;99.90;;;;;;8321312;28;20047;-66
2020/12/25 21:50:33;;;;;;;5.82;1.80;;;0.20;99.90;;;;;;8315157;28;20108;-67